Time;durP1;ratioP1;P1;durP2;ratioP2;P2;SDS_P1;SDS_P2;PMS_P1;PMS_P2;Temp;Humidity;BMP_temperature;BMP_pressure;BME280_temperature;BME280_humidity;BME280_pressure;Samples;Min_cycle;Max_cycle;Signal;HPM_P1;HPM_P2
2022/01/03 00:01:56;;;;;;;;;;;11.20;99.90;;;;;;4245517;33;32799;-82
2022/01/03 00:04:24;;;;;;;;;;;11.20;99.90;;;;;;4246439;33;30697;-83
2022/01/03 00:06:51;;;;;;;;;;;11.20;99.90;;;;;;4246125;33;31177;-84
2022/01/03 00:09:19;;;;;;;;;;;11.10;99.90;;;;;;4258435;33;37258;-84
2022/01/03 00:11:47;;;;;;;;;;;11.20;99.90;;;;;;4245204;33;43704;-84
2022/01/03 00:14:16;;;;;;;;;;;11.20;99.90;;;;;;4247132;33;20027;-83
2022/01/03 00:16:43;;;;;;;;;;;11.20;99.90;;;;;;4245634;33;39015;-83
2022/01/03 00:19:11;;;;;;;;;;;11.20;99.90;;;;;;4245933;33;38257;-83
2022/01/03 00:21:42;;;;;;;;;;;11.10;99.90;;;;;;4259248;33;20413;-84
2022/01/03 00:24:09;;;;;;;;;;;11.10;99.90;;;;;;4245624;33;37071;-84
2022/01/03 00:26:37;;;;;;;;;;;11.10;99.90;;;;;;4245366;33;34505;-83
2022/01/03 00:29:08;;;;;;;;;;;11.10;99.90;;;;;;4245931;33;36554;-83
2022/01/03 00:31:40;;;;;;;;;;;11.10;99.90;;;;;;4246280;33;20011;-83
2022/01/03 00:34:09;;;;;;;;;;;11.10;99.90;;;;;;4259699;33;20409;-84
2022/01/03 00:36:39;;;;;;;;;;;11.10;99.90;;;;;;4245551;33;35577;-83
2022/01/03 00:39:10;;;;;;;;;;;11.10;99.90;;;;;;4257720;33;20409;-83
2022/01/03 00:41:42;;;;;;;;;;;11.10;99.90;;;;;;4246294;33;20050;-83
2022/01/03 00:44:12;;;;;;;;;;;11.10;99.90;;;;;;4245847;33;27715;-83
2022/01/03 00:46:39;;;;;;;;;;;11.10;99.90;;;;;;4258261;33;45441;-84
2022/01/03 00:49:06;;;;;;;;;;;11.00;99.90;;;;;;4246273;33;20070;-83
2022/01/03 00:51:36;;;;;;;;;;;11.10;99.90;;;;;;4257145;33;37835;-83
2022/01/03 00:54:04;;;;;;;;;;;11.00;99.90;;;;;;4257916;33;20022;-83
2022/01/03 00:56:43;;;;;;;;;;;11.00;99.90;;;;;;4245750;33;39100;-83
2022/01/03 00:59:12;;;;;;;;;;;11.00;99.90;;;;;;4245604;33;41934;-84
2022/01/03 01:01:44;;;;;;;;;;;11.00;99.90;;;;;;4245150;33;34820;-83
2022/01/03 01:04:15;;;;;;;;;;;11.00;99.90;;;;;;4257471;33;43756;-83
2022/01/03 01:06:42;;;;;;;;;;;11.00;99.90;;;;;;4246500;33;20063;-83
2022/01/03 01:09:14;;;;;;;;;;;11.00;99.90;;;;;;4249237;33;20015;-83
2022/01/03 01:11:43;;;;;;;;;;;10.90;99.90;;;;;;4247977;33;43617;-84
2022/01/03 01:14:13;;;;;;;;;;;10.90;99.90;;;;;;4248511;33;20490;-83
2022/01/03 01:16:40;;;;;;;;;;;10.90;99.90;;;;;;4261172;33;40416;-84
2022/01/03 01:19:09;;;;;;;;;;;10.90;99.90;;;;;;4247826;33;34532;-83
2022/01/03 01:21:40;;;;;;;;;;;10.90;99.90;;;;;;4247866;33;34821;-83
2022/01/03 01:24:07;;;;;;;;;;;10.90;99.90;;;;;;4248054;33;37406;-83
2022/01/03 01:29:20;;;;;;;;;;;10.90;99.90;;;;;;4260876;33;36514;-84
2022/01/03 01:31:49;;;;;;;;;;;10.90;99.90;;;;;;4260569;33;20043;-83
2022/01/03 01:34:22;;;;;;;;;;;10.90;99.90;;;;;;4248818;33;20047;-84
2022/01/03 01:36:55;;;;;;;;;;;10.90;99.90;;;;;;4259582;33;45423;-84
2022/01/03 01:39:23;;;;;;;;;;;10.90;99.90;;;;;;4259162;33;41445;-83
2022/01/03 01:41:53;;;;;;;;;;;10.90;99.90;;;;;;4247215;33;34932;-83
2022/01/03 01:44:21;;;;;;;;;;;10.90;99.90;;;;;;4247457;33;42555;-83
2022/01/03 01:46:53;;;;;;;;;;;10.90;99.90;;;;;;4259191;33;30652;-83
2022/01/03 01:49:25;;;;;;;;;;;10.90;99.90;;;;;;4247702;33;33677;-84
2022/01/03 01:51:57;;;;;;;;;;;10.80;99.90;;;;;;4248684;33;20066;-84
2022/01/03 01:54:29;;;;;;;;;;;10.90;99.90;;;;;;4247070;33;43949;-83
2022/01/03 01:57:08;;;;;;;;;;;10.80;99.90;;;;;;4261259;33;20063;-83
2022/01/03 01:59:38;;;;;;;;;;;10.80;99.90;;;;;;4247977;33;20322;-83
2022/01/03 02:02:09;;;;;;;;;;;10.80;99.90;;;;;;4259858;33;20029;-84
2022/01/03 02:04:55;;;;;;;;;;;10.80;99.90;;;;;;4259831;33;20011;-84
2022/01/03 02:07:45;;;;;;;;;;;10.80;99.90;;;;;;4259993;33;20003;-84
2022/01/03 02:10:16;;;;;;;;;;;10.80;99.90;;;;;;4247038;33;20011;-84
2022/01/03 02:12:49;;;;;;;;;;;10.80;99.90;;;;;;4248048;33;20011;-84
2022/01/03 02:15:19;;;;;;;;;;;10.80;99.90;;;;;;4261280;33;20003;-84
2022/01/03 02:17:47;;;;;;;;;;;10.80;99.90;;;;;;4248022;33;20021;-84
2022/01/03 02:20:16;;;;;;;;;;;10.80;99.90;;;;;;4247539;33;20029;-84
2022/01/03 02:22:44;;;;;;;;;;;10.80;99.90;;;;;;4260880;33;20074;-83
2022/01/03 02:25:16;;;;;;;;;;;10.80;99.90;;;;;;4247828;33;20425;-84
2022/01/03 02:27:44;;;;;;;;;;;10.80;99.90;;;;;;4247632;33;20072;-84
2022/01/03 02:30:16;;;;;;;;;;;10.80;99.90;;;;;;4259449;33;20017;-83
2022/01/03 02:32:45;;;;;;;;;;;10.80;99.90;;;;;;4248109;33;20097;-83
2022/01/03 02:35:13;;;;;;;;;;;10.70;99.90;;;;;;4258860;33;20074;-85
2022/01/03 02:37:44;;;;;;;;;;;10.70;99.90;;;;;;4246889;33;32415;-84
2022/01/03 02:40:13;;;;;;;;;;;10.70;99.90;;;;;;4246779;33;40691;-84
2022/01/03 02:42:42;;;;;;;;;;;10.80;99.90;;;;;;4259740;33;38935;-84
2022/01/03 02:45:09;;;;;;;;;;;10.80;99.90;;;;;;4259443;33;40076;-83
2022/01/03 02:47:38;;;;;;;;;;;10.70;99.90;;;;;;4259163;33;20379;-83
2022/01/03 02:50:07;;;;;;;;;;;10.80;99.90;;;;;;4247368;33;20033;-84
2022/01/03 02:52:34;;;;;;;;;;;10.80;99.90;;;;;;4259070;33;20082;-84
2022/01/03 02:55:05;;;;;;;;;;;10.70;99.90;;;;;;4247341;33;20032;-83
2022/01/03 02:57:36;;;;;;;;;;;10.80;99.90;;;;;;4247417;33;20051;-84
2022/01/03 03:00:04;;;;;;;;;;;10.70;99.90;;;;;;4247265;33;20242;-84
2022/01/03 03:02:31;;;;;;;;;;;10.70;99.90;;;;;;4247187;33;20008;-84
2022/01/03 03:04:59;;;;;;;;;;;10.70;99.90;;;;;;4259897;33;20007;-83
2022/01/03 03:07:28;;;;;;;;;;;10.80;99.90;;;;;;4259162;33;20003;-84
2022/01/03 03:09:57;;;;;;;;;;;10.70;99.90;;;;;;4260484;33;20020;-83
2022/01/03 03:12:25;;;;;;;;;;;10.70;99.90;;;;;;4259779;33;20011;-83
2022/01/03 03:14:55;;;;;;;;;;;10.70;99.90;;;;;;4260200;33;20011;-83
2022/01/03 03:17:22;;;;;;;;;;;10.70;99.90;;;;;;4247605;33;20016;-84
2022/01/03 03:20:00;;;;;;;;;;;10.70;99.90;;;;;;4259190;33;20016;-84
2022/01/03 03:22:28;;;;;;;;;;;10.70;99.90;;;;;;4245974;33;40894;-83
2022/01/03 03:25:04;;;;;;;;;;;10.70;99.90;;;;;;4247347;33;20094;-83
2022/01/03 03:27:36;;;;;;;;;;;10.70;99.90;;;;;;4246754;33;20014;-84
2022/01/03 03:30:19;;;;;;;;;;;10.70;99.90;;;;;;4247279;33;31657;-83
2022/01/03 03:32:51;;;;;;;;;;;10.70;99.90;;;;;;4246818;33;20003;-84
2022/01/03 03:35:18;;;;;;;;;;;10.70;99.90;;;;;;4259244;33;35682;-84
2022/01/03 03:37:46;;;;;;;;;;;10.60;99.90;;;;;;4258995;33;20003;-83
2022/01/03 03:40:13;;;;;;;;;;;10.70;99.90;;;;;;4258860;33;20114;-84
2022/01/03 03:42:41;;;;;;;;;;;10.70;99.90;;;;;;4246844;33;20015;-84
2022/01/03 03:45:12;;;;;;;;;;;10.70;99.90;;;;;;4257866;33;23798;-83
2022/01/03 03:47:40;;;;;;;;;;;10.70;99.90;;;;;;4245927;33;40128;-83
2022/01/03 03:50:08;;;;;;;;;;;10.60;99.90;;;;;;4258561;33;40356;-84
2022/01/03 03:52:35;;;;;;;;;;;10.60;99.90;;;;;;4245878;33;30320;-84
2022/01/03 03:55:02;;;;;;;;;;;10.60;99.90;;;;;;4245655;33;43476;-84
2022/01/03 03:57:29;;;;;;;;;;;10.60;99.90;;;;;;4245773;33;41206;-83
2022/01/03 03:59:56;;;;;;;;;;;10.60;99.90;;;;;;4245478;33;42117;-84
2022/01/03 04:02:26;;;;;;;;;;;10.60;99.90;;;;;;4243521;33;34031;-83
2022/01/03 04:04:53;;;;;;;;;;;10.60;99.90;;;;;;4242963;33;40374;-83
2022/01/03 04:07:21;;;;;;;;;;;10.60;99.90;;;;;;4244496;33;20385;-83
2022/01/03 04:09:48;;;;;;;;;;;10.60;99.90;;;;;;4254984;33;40776;-83
2022/01/03 04:12:15;;;;;;;;;;;10.60;99.90;;;;;;4255237;33;38112;-84
2022/01/03 04:14:42;;;;;;;;;;;10.60;99.90;;;;;;4254749;33;37766;-84
2022/01/03 04:17:10;;;;;;;;;;;10.60;99.90;;;;;;4255289;33;39839;-84
2022/01/03 04:19:37;;;;;;;;;;;10.60;99.90;;;;;;4255366;33;36210;-84
2022/01/03 04:22:05;;;;;;;;;;;10.60;99.90;;;;;;4243579;33;31420;-83
2022/01/03 04:24:32;;;;;;;;;;;10.60;99.90;;;;;;4243291;33;43269;-84
2022/01/03 04:27:00;;;;;;;;;;;10.60;99.90;;;;;;4254906;33;39506;-84
2022/01/03 04:29:27;;;;;;;;;;;10.60;99.90;;;;;;4243227;33;41269;-84
2022/01/03 04:31:54;;;;;;;;;;;10.60;99.90;;;;;;4243713;33;32303;-84
2022/01/03 04:34:21;;;;;;;;;;;10.60;99.90;;;;;;4232162;33;22290;-84
2022/01/03 04:36:48;;;;;;;;;;;10.60;99.90;;;;;;4254928;33;43491;-84
2022/01/03 04:39:15;;;;;;;;;;;10.60;99.90;;;;;;4243403;33;30641;-84
2022/01/03 04:41:42;;;;;;;;;;;10.60;99.90;;;;;;4245293;33;20011;-84
2022/01/03 04:44:10;;;;;;;;;;;10.60;99.90;;;;;;4257595;33;44130;-84
2022/01/03 04:46:37;;;;;;;;;;;10.60;99.90;;;;;;4245669;33;31716;-83
2022/01/03 04:49:13;;;;;;;;;;;10.50;99.90;;;;;;4257535;33;41496;-84
2022/01/03 04:51:40;;;;;;;;;;;10.50;99.90;;;;;;4246191;33;41961;-84
2022/01/03 04:54:07;;;;;;;;;;;10.50;99.90;;;;;;4258158;33;26825;-83
2022/01/03 04:56:34;;;;;;;;;;;10.50;99.90;;;;;;4246027;33;36524;-83
2022/01/03 04:59:02;;;;;;;;;;;10.50;99.90;;;;;;4246399;33;38255;-84
2022/01/03 05:01:29;;;;;;;;;;;10.50;99.90;;;;;;4246603;33;29247;-84
2022/01/03 05:03:57;;;;;;;;;;;10.50;99.90;;;;;;4259978;33;37574;-84
2022/01/03 05:06:27;;;;;;;;;;;10.50;99.90;;;;;;4247707;33;41703;-84
2022/01/03 05:08:54;;;;;;;;;;;10.50;99.90;;;;;;4247845;33;31816;-83
2022/01/03 05:11:24;;;;;;;;;;;10.50;99.90;;;;;;4247835;33;36671;-83
2022/01/03 05:13:54;;;;;;;;;;;10.50;99.90;;;;;;4248944;33;20059;-84
2022/01/03 05:16:22;;;;;;;;;;;10.50;99.90;;;;;;4247637;33;45418;-84
2022/01/03 05:18:49;;;;;;;;;;;10.50;99.90;;;;;;4247442;33;38652;-84
2022/01/03 05:21:16;;;;;;;;;;;10.40;99.90;;;;;;4249089;33;20074;-83
2022/01/03 05:23:43;;;;;;;;;;;10.50;99.90;;;;;;4259281;33;40161;-84
2022/01/03 05:26:14;;;;;;;;;;;10.50;99.90;;;;;;4260760;33;35538;-84
2022/01/03 05:28:47;;;;;;;;;;;10.50;99.90;;;;;;4261652;33;20024;-85
2022/01/03 05:31:14;;;;;;;;;;;10.50;99.90;;;;;;4261203;33;20015;-84
2022/01/03 05:33:41;;;;;;;;;;;10.50;99.90;;;;;;4260090;33;20064;-84
2022/01/03 05:36:09;;;;;;;;;;;10.50;99.90;;;;;;4260639;33;37033;-84
2022/01/03 05:38:36;;;;;;;;;;;10.40;99.90;;;;;;4247698;33;32297;-84
2022/01/03 05:41:03;;;;;;;;;;;10.50;99.90;;;;;;4259488;33;41357;-84
2022/01/03 05:43:33;;;;;;;;;;;10.40;99.90;;;;;;4261578;33;20007;-83
2022/01/03 05:46:00;;;;;;;;;;;10.40;99.90;;;;;;4258910;33;40735;-84
2022/01/03 05:48:28;;;;;;;;;;;10.40;99.90;;;;;;4247281;33;38513;-83
2022/01/03 05:50:56;;;;;;;;;;;10.40;99.90;;;;;;4247596;33;33311;-83
2022/01/03 05:53:23;;;;;;;;;;;10.50;99.90;;;;;;4246481;33;39306;-84
2022/01/03 05:55:52;;;;;;;;;;;10.40;99.90;;;;;;4260844;33;24863;-83
2022/01/03 05:58:21;;;;;;;;;;;10.40;99.90;;;;;;4247132;33;39687;-83
2022/01/03 06:00:52;;;;;;;;;;;10.40;99.90;;;;;;4247336;33;29012;-84
2022/01/03 06:03:27;;;;;;;;;;;10.40;99.90;;;;;;4247005;33;44593;-84
2022/01/03 06:08:27;;;;;;;;;;;10.50;99.90;;;;;;4259690;33;20382;-83
2022/01/03 06:10:54;;;;;;;;;;;10.40;99.90;;;;;;4259892;33;31643;-84
2022/01/03 06:13:24;;;;;;;;;;;10.40;99.90;;;;;;4248241;33;20356;-84
2022/01/03 06:15:51;;;;;;;;;;;10.50;99.90;;;;;;4248428;33;20412;-84
2022/01/03 06:18:21;;;;;;;;;;;10.40;99.90;;;;;;4259569;33;20014;-84
2022/01/03 06:20:51;;;;;;;;;;;10.40;99.90;;;;;;4247669;33;20021;-83
2022/01/03 06:23:21;;;;;;;;;;;10.40;99.90;;;;;;4247647;33;19999;-83
2022/01/03 06:25:49;;;;;;;;;;;10.40;99.90;;;;;;4247740;33;20409;-83
2022/01/03 06:28:18;;;;;;;;;;;10.50;99.90;;;;;;4248170;33;20010;-83
2022/01/03 06:30:45;;;;;;;;;;;10.40;99.90;;;;;;4247665;33;20051;-83
2022/01/03 06:33:12;;;;;;;;;;;10.40;99.90;;;;;;4259823;33;19995;-83
2022/01/03 06:35:45;;;;;;;;;;;10.40;99.90;;;;;;4260066;33;20028;-84
2022/01/03 06:38:17;;;;;;;;;;;10.40;99.90;;;;;;4260932;33;20021;-83
2022/01/03 06:40:44;;;;;;;;;;;10.40;99.90;;;;;;4247504;33;20042;-83
2022/01/03 06:43:14;;;;;;;;;;;10.40;99.90;;;;;;4247440;33;20070;-83
2022/01/03 06:45:41;;;;;;;;;;;10.40;99.90;;;;;;4259704;33;20035;-83
2022/01/03 06:48:11;;;;;;;;;;;10.40;99.90;;;;;;4260723;33;20107;-85
2022/01/03 06:50:38;;;;;;;;;;;10.40;99.90;;;;;;4247648;33;20010;-83
2022/01/03 06:53:08;;;;;;;;;;;10.40;99.90;;;;;;4247293;33;20121;-83
2022/01/03 06:55:39;;;;;;;;;;;10.40;99.90;;;;;;4247718;33;20509;-83
2022/01/03 06:58:06;;;;;;;;;;;10.40;99.90;;;;;;4259248;33;20070;-83
2022/01/03 07:00:35;;;;;;;;;;;10.40;99.90;;;;;;4260525;33;20003;-83
2022/01/03 07:03:06;;;;;;;;;;;10.40;99.90;;;;;;4256563;33;20059;-82
2022/01/03 07:05:34;;;;;;;;;;;10.30;99.90;;;;;;4256262;33;20021;-83
2022/01/03 07:08:06;;;;;;;;;;;10.40;99.90;;;;;;4245001;33;20109;-83
2022/01/03 07:10:36;;;;;;;;;;;10.40;99.90;;;;;;4256633;33;20069;-83
2022/01/03 07:13:06;;;;;;;;;;;10.40;99.90;;;;;;4256490;33;20011;-83
2022/01/03 07:21:20;;;;;;;;;;;10.30;99.90;;;;;;4256490;33;20432;-83
2022/01/03 07:23:50;;;;;;;;;;;10.30;99.90;;;;;;4244412;33;20014;-84
2022/01/03 07:26:18;;;;;;;;;;;10.40;99.90;;;;;;4256649;33;20011;-87
2022/01/03 07:28:54;;;;;;;;;;;10.40;99.90;;;;;;4244733;33;20055;-82
2022/01/03 07:31:21;;;;;;;;;;;10.30;99.90;;;;;;4244875;33;20000;-84
2022/01/03 07:33:57;;;;;;;;;;;10.30;99.90;;;;;;4244820;33;20011;-83
2022/01/03 07:36:30;;;;;;;;;;;10.30;99.90;;;;;;4257059;33;20067;-84
2022/01/03 07:39:05;;;;;;;;;;;10.30;99.90;;;;;;4244716;33;20000;-83
2022/01/03 07:41:38;;;;;;;;;;;10.30;99.90;;;;;;4244380;33;20010;-83
2022/01/03 07:44:08;;;;;;;;;;;10.30;99.90;;;;;;4256619;33;20058;-83
2022/01/03 07:46:38;;;;;;;;;;;10.30;99.90;;;;;;4256540;33;20431;-83
2022/01/03 07:49:07;;;;;;;;;;;10.30;99.90;;;;;;4244752;33;20008;-83
2022/01/03 07:51:38;;;;;;;;;;;10.30;99.90;;;;;;4256415;33;20029;-84
2022/01/03 07:54:13;;;;;;;;;;;10.30;99.90;;;;;;4256003;33;20007;-83
2022/01/03 07:56:40;;;;;;;;;;;10.30;99.90;;;;;;4245915;33;20008;-83
2022/01/03 07:59:07;;;;;;;;;;;10.30;99.90;;;;;;4245274;33;20011;-83
2022/01/03 08:01:34;;;;;;;;;;;10.30;99.90;;;;;;4245057;33;20387;-83
2022/01/03 08:04:07;;;;;;;;;;;10.30;99.90;;;;;;4258907;33;20021;-83
2022/01/03 08:06:47;;;;;;;;;;;10.30;99.90;;;;;;4247858;33;20063;-83
2022/01/03 08:09:14;;;;;;;;;;;10.30;99.90;;;;;;4258299;33;20002;-83
2022/01/03 08:11:41;;;;;;;;;;;10.30;99.90;;;;;;4258142;33;20397;-83
2022/01/03 08:14:11;;;;;;;;;;;10.30;99.90;;;;;;4246528;33;20018;-83
2022/01/03 08:16:38;;;;;;;;;;;10.30;99.90;;;;;;4259383;33;20011;-83
2022/01/03 08:19:08;;;;;;;;;;;10.30;99.90;;;;;;4262199;33;20068;-83
2022/01/03 08:21:38;;;;;;;;;;;10.30;99.90;;;;;;4249677;33;20076;-83
2022/01/03 08:24:08;;;;;;;;;;;10.30;99.90;;;;;;4262111;33;20006;-83
2022/01/03 08:26:38;;;;;;;;;;;10.30;99.90;;;;;;4249481;33;20007;-83
2022/01/03 08:29:05;;;;;;;;;;;10.30;99.90;;;;;;4262506;33;20007;-83
2022/01/03 08:31:32;;;;;;;;;;;10.20;99.90;;;;;;4249837;33;20019;-83
2022/01/03 08:34:03;;;;;;;;;;;10.30;99.90;;;;;;4261131;33;20037;-83
2022/01/03 08:36:36;;;;;;;;;;;10.30;99.90;;;;;;4261502;33;20440;-83
2022/01/03 08:39:03;;;;;;;;;;;10.30;99.90;;;;;;4249748;33;20438;-84
2022/01/03 08:41:30;;;;;;;;;;;10.30;99.90;;;;;;4260801;33;20000;-83
2022/01/03 08:43:58;;;;;;;;;;;10.30;99.90;;;;;;4260930;33;20000;-83
2022/01/03 08:46:28;;;;;;;;;;;10.30;99.90;;;;;;4249048;33;20372;-83
2022/01/03 08:48:56;;;;;;;;;;;10.30;99.90;;;;;;4249278;33;20015;-83
2022/01/03 08:51:25;;;;;;;;;;;10.30;99.90;;;;;;4249059;33;20011;-83
2022/01/03 08:53:55;;;;;;;;;;;10.30;99.90;;;;;;4262264;33;20003;-84
2022/01/03 08:56:22;;;;;;;;;;;10.30;99.90;;;;;;4261436;33;20014;-83
2022/01/03 08:58:52;;;;;;;;;;;10.30;99.90;;;;;;4260755;33;20023;-83
2022/01/03 09:01:19;;;;;;;;;;;10.30;99.90;;;;;;4249043;33;20007;-83
2022/01/03 09:03:50;;;;;;;;;;;10.30;99.90;;;;;;4261554;33;20062;-83
2022/01/03 09:06:20;;;;;;;;;;;10.30;99.90;;;;;;4260433;33;20062;-84
2022/01/03 09:08:47;;;;;;;;;;;10.30;99.90;;;;;;4261555;33;20409;-83
2022/01/03 09:11:18;;;;;;;;;;;10.30;99.90;;;;;;4260891;33;20011;-83
2022/01/03 09:13:48;;;;;;;;;;;10.30;99.90;;;;;;4261023;33;20007;-83
2022/01/03 09:16:15;;;;;;;;;;;10.30;99.90;;;;;;4248728;33;20002;-83
2022/01/03 09:18:42;;;;;;;;;;;10.30;99.90;;;;;;4248794;33;20405;-83
2022/01/03 09:21:10;;;;;;;;;;;10.30;99.90;;;;;;4259797;33;20007;-83
2022/01/03 09:23:43;;;;;;;;;;;10.30;99.90;;;;;;4248443;33;20011;-83
2022/01/03 09:28:56;;;;;;;;;;;10.30;99.90;;;;;;4260666;33;20293;-84
2022/01/03 09:31:31;;;;;;;;;;;10.30;99.90;;;;;;4260404;33;20011;-83
2022/01/03 09:34:02;;;;;;;;;;;10.30;99.90;;;;;;4248952;33;20419;-83
2022/01/03 09:36:30;;;;;;;;;;;10.30;99.90;;;;;;4248165;33;20010;-83
2022/01/03 09:38:58;;;;;;;;;;;10.30;99.90;;;;;;4248946;33;20082;-83
2022/01/03 09:41:34;;;;;;;;;;;10.30;99.90;;;;;;4260089;33;20015;-83
2022/01/03 09:44:08;;;;;;;;;;;10.30;99.90;;;;;;4248773;33;20025;-83
2022/01/03 09:46:37;;;;;;;;;;;10.30;99.90;;;;;;4261114;33;20019;-83
2022/01/03 09:49:09;;;;;;;;;;;10.30;99.90;;;;;;4248573;33;20011;-83
2022/01/03 09:51:37;;;;;;;;;;;10.30;99.90;;;;;;4260281;33;20007;-83
2022/01/03 09:54:08;;;;;;;;;;;10.30;99.90;;;;;;4261524;33;20046;-83
2022/01/03 09:56:39;;;;;;;;;;;10.30;99.90;;;;;;4260251;33;20080;-83
2022/01/03 09:59:10;;;;;;;;;;;10.30;99.90;;;;;;4248031;33;20071;-83
2022/01/03 10:01:41;;;;;;;;;;;10.30;99.90;;;;;;4261368;33;20059;-84
2022/01/03 10:04:10;;;;;;;;;;;10.30;99.90;;;;;;4260261;33;20025;-83
2022/01/03 10:06:38;;;;;;;;;;;10.30;99.90;;;;;;4248090;33;20070;-83
2022/01/03 10:09:05;;;;;;;;;;;10.30;99.90;;;;;;4259506;33;20456;-83
2022/01/03 10:11:32;;;;;;;;;;;10.30;99.90;;;;;;4247945;33;20023;-84
2022/01/03 10:13:59;;;;;;;;;;;10.30;99.90;;;;;;4248189;33;20368;-83
2022/01/03 10:16:28;;;;;;;;;;;10.30;99.90;;;;;;4258486;33;44000;-83
2022/01/03 10:19:14;;;;;;;;;;;10.30;99.90;;;;;;4249291;33;20882;-83
2022/01/03 10:21:43;;;;;;;;;;;10.30;99.90;;;;;;4258664;33;31848;-83
2022/01/03 10:24:11;;;;;;;;;;;10.30;99.90;;;;;;4247077;33;25851;-83
2022/01/03 10:26:38;;;;;;;;;;;10.30;99.90;;;;;;4246797;33;35446;-83
2022/01/03 10:29:12;;;;;;;;;;;10.30;99.90;;;;;;4246524;33;44686;-83
2022/01/03 10:31:44;;;;;;;;;;;10.30;99.90;;;;;;4247736;33;20401;-84
2022/01/03 10:34:13;;;;;;;;;;;10.30;99.90;;;;;;4247845;33;20023;-84
2022/01/03 10:36:42;;;;;;;;;;;10.30;99.90;;;;;;4260139;33;20022;-84
2022/01/03 10:39:17;;;;;;;;;;;10.30;99.90;;;;;;4247715;33;20019;-83
2022/01/03 10:41:46;;;;;;;;;;;10.30;99.90;;;;;;4259745;33;20360;-83
2022/01/03 10:44:33;;;;;;;;;;;10.30;99.90;;;;;;4247910;33;20057;-83
2022/01/03 10:47:05;;;;;;;;;;;10.20;99.90;;;;;;4246484;33;29283;-83
2022/01/03 10:49:32;;;;;;;;;;;10.30;99.90;;;;;;4259334;33;20003;-83
2022/01/03 10:52:13;;;;;;;;;;;10.30;99.90;;;;;;4259316;33;20019;-83
2022/01/03 10:54:44;;;;;;;;;;;10.30;99.90;;;;;;4259112;33;20039;-83
2022/01/03 10:57:14;;;;;;;;;;;10.30;99.90;;;;;;4259581;33;35291;-83
2022/01/03 10:59:47;;;;;;;;;;;10.30;99.90;;;;;;4246982;33;20034;-83
2022/01/03 11:02:14;;;;;;;;;;;10.30;99.90;;;;;;4258354;33;26339;-84
2022/01/03 11:13:16;;;;;;;;;;;10.30;99.90;;;;;;4260105;33;20025;-83
2022/01/03 11:15:50;;;;;;;;;;;10.30;99.90;;;;;;4260014;33;20011;-83
2022/01/03 11:18:22;;;;;;;;;;;10.30;99.90;;;;;;4258892;33;20019;-83
2022/01/03 11:21:01;;;;;;;;;;;10.30;99.90;;;;;;4247965;33;20003;-84
2022/01/03 11:23:36;;;;;;;;;;;10.30;99.90;;;;;;4259102;33;20015;-84
2022/01/03 11:26:10;;;;;;;;;;;10.30;99.90;;;;;;4258523;33;22795;-83
2022/01/03 11:28:37;;;;;;;;;;;10.30;99.90;;;;;;4247330;33;20010;-83
2022/01/03 11:31:13;;;;;;;;;;;10.30;99.90;;;;;;4235419;33;20013;-84
2022/01/03 11:33:41;;;;;;;;;;;10.30;99.90;;;;;;4247468;33;20425;-84
2022/01/03 11:36:29;;;;;;;;;;;10.40;99.90;;;;;;4259177;33;20077;-84
2022/01/03 11:38:56;;;;;;;;;;;10.30;99.90;;;;;;4258980;33;36130;-84
2022/01/03 11:41:24;;;;;;;;;;;10.30;99.90;;;;;;4246299;33;35912;-83
2022/01/03 11:43:56;;;;;;;;;;;10.30;99.90;;;;;;4246190;33;45985;-84
2022/01/03 11:46:28;;;;;;;;;;;10.30;99.90;;;;;;4245872;33;39526;-84
2022/01/03 11:48:56;;;;;;;;;;;10.30;99.90;;;;;;4246597;33;20015;-83
2022/01/03 11:51:32;;;;;;;;;;;10.30;99.90;;;;;;4246215;33;30786;-83
2022/01/03 11:54:05;;;;;;;;;;;10.30;99.90;;;;;;4257587;33;34463;-83
2022/01/03 11:56:36;;;;;;;;;;;10.30;99.90;;;;;;4234907;33;20021;-83
2022/01/03 12:04:59;;;;;;;;;;;10.30;99.90;;;;;;4259389;33;27349;-83
2022/01/03 12:07:32;;;;;;;;;;;10.40;99.90;;;;;;4247522;33;20389;-83
2022/01/03 12:10:09;;;;;;;;;;;10.30;99.90;;;;;;4258010;33;23838;-83
2022/01/03 12:12:39;;;;;;;;;;;10.30;99.90;;;;;;4257397;33;46951;-83
2022/01/03 12:15:26;;;;;;;;;;;10.40;99.90;;;;;;4257467;33;31126;-83
2022/01/03 12:17:55;;;;;;;;;;;10.40;99.90;;;;;;4246506;33;27859;-83
2022/01/03 12:20:36;;;;;;;;;;;10.30;99.90;;;;;;4258465;33;41939;-83
2022/01/03 12:23:04;;;;;;;;;;;10.30;99.90;;;;;;4257209;33;45369;-83
2022/01/03 12:25:32;;;;;;;;;;;10.30;99.90;;;;;;4258180;33;42157;-83
2022/01/03 12:28:03;;;;;;;;;;;10.30;99.90;;;;;;4257985;33;44659;-83
2022/01/03 12:30:32;;;;;;;;;;;10.30;99.90;;;;;;4259522;33;20055;-83
2022/01/03 12:33:05;;;;;;;;;;;10.30;99.90;;;;;;4257662;33;20089;-83
2022/01/03 12:35:34;;;;;;;;;;;10.30;99.90;;;;;;4259637;33;20303;-83
2022/01/03 12:38:04;;;;;;;;;;;10.30;99.90;;;;;;4259862;33;20063;-83
2022/01/03 12:41:01;;;;;;;;;;;10.30;99.90;;;;;;4258426;33;20030;-83
2022/01/03 12:43:33;;;;;;;;;;;10.30;99.90;;;;;;4236472;33;43327;-83
2022/01/03 12:46:01;;;;;;;;;;;10.30;99.90;;;;;;4234025;33;38977;-83
2022/01/03 12:48:31;;;;;;;;;;;10.30;99.90;;;;;;4258838;33;32982;-82
2022/01/03 12:50:58;;;;;;;;;;;10.30;99.90;;;;;;4245565;33;33029;-83
2022/01/03 12:53:31;;;;;;;;;;;10.30;99.90;;;;;;4245440;33;30327;-83
2022/01/03 12:56:02;;;;;;;;;;;10.30;99.90;;;;;;4258769;33;27669;-83
2022/01/03 12:58:29;;;;;;;;;;;10.30;99.90;;;;;;4257558;33;20389;-83
2022/01/03 13:00:56;;;;;;;;;;;10.30;99.90;;;;;;4258555;33;38784;-83
2022/01/03 13:03:27;;;;;;;;;;;10.30;99.90;;;;;;4259259;33;26041;-83
2022/01/03 13:06:07;;;;;;;;;;;10.30;99.90;;;;;;4260403;33;32498;-82
2022/01/03 13:08:41;;;;;;;;;;;10.30;99.90;;;;;;4259784;33;29313;-82
2022/01/03 13:11:09;;;;;;;;;;;10.30;99.90;;;;;;4260902;33;42523;-83
2022/01/03 13:13:37;;;;;;;;;;;10.30;99.90;;;;;;4261960;33;20022;-83
2022/01/03 13:16:17;;;;;;;;;;;10.30;99.90;;;;;;4261442;33;20365;-83
2022/01/03 13:18:55;;;;;;;;;;;10.30;99.90;;;;;;4248687;33;20009;-82
2022/01/03 13:21:23;;;;;;;;;;;10.30;99.90;;;;;;4248977;33;20357;-83
2022/01/03 13:23:59;;;;;;;;;;;10.30;99.90;;;;;;4261050;33;20012;-82
2022/01/03 13:26:28;;;;;;;;;;;10.30;99.90;;;;;;4261986;33;20414;-82
2022/01/03 13:28:59;;;;;;;;;;;10.30;99.90;;;;;;4261663;33;20025;-82
2022/01/03 13:31:26;;;;;;;;;;;10.30;99.90;;;;;;4260818;33;20435;-82
2022/01/03 13:33:57;;;;;;;;;;;10.30;99.90;;;;;;4260190;33;20019;-82
2022/01/03 13:36:50;;;;;;;;;;;10.30;99.90;;;;;;4260541;33;20423;-82
2022/01/03 13:39:20;;;;;;;;;;;10.30;99.90;;;;;;4247294;33;45143;-82
2022/01/03 13:41:50;;;;;;;;;;;10.30;99.90;;;;;;4260638;33;38892;-83
2022/01/03 13:44:48;;;;;;;;;;;10.30;99.90;;;;;;4248578;33;20003;-83
2022/01/03 13:50:03;;;;;;;;;;;10.30;99.90;;;;;;4260335;33;43606;-82
2022/01/03 13:52:33;;;;;;;;;;;10.30;99.90;;;;;;4260313;33;43575;-82
2022/01/03 13:55:05;;;;;;;;;;;10.30;99.90;;;;;;4248322;33;20066;-88
2022/01/03 13:57:35;;;;;;;;;;;10.30;99.90;;;;;;4260888;33;20025;-87
2022/01/03 14:00:05;;;;;;;;;;;10.30;99.90;;;;;;4248554;33;20014;-87
2022/01/03 14:02:36;;;;;;;;;;;10.30;99.90;;;;;;4235945;33;20020;-87
2022/01/03 14:05:04;;;;;;;;;;;10.30;99.90;;;;;;4248271;33;20013;-87
2022/01/03 14:07:31;;;;;;;;;;;10.30;99.90;;;;;;4260009;33;20020;-87
2022/01/03 14:09:58;;;;;;;;;;;10.30;99.90;;;;;;4260361;33;36319;-87
2022/01/03 14:12:27;;;;;;;;;;;10.30;99.90;;;;;;4260399;33;20021;-87
2022/01/03 14:14:55;;;;;;;;;;;10.30;99.90;;;;;;4248026;33;20074;-87
2022/01/03 14:17:23;;;;;;;;;;;10.30;99.90;;;;;;4260123;33;19996;-87
2022/01/03 14:20:02;;;;;;;;;;;10.30;99.90;;;;;;4261270;33;20059;-87
2022/01/03 14:22:34;;;;;;;;;;;10.30;99.90;;;;;;4259973;33;20037;-87
2022/01/03 14:25:06;;;;;;;;;;;10.30;99.90;;;;;;4260132;33;20409;-87
2022/01/03 14:27:45;;;;;;;;;;;10.30;99.90;;;;;;4260189;33;20000;-87
2022/01/03 14:30:18;;;;;;;;;;;10.20;99.90;;;;;;4248105;33;20013;-86
2022/01/03 14:32:47;;;;;;;;;;;10.30;99.90;;;;;;4248022;33;20015;-87
2022/01/03 14:35:14;;;;;;;;;;;10.30;99.90;;;;;;4248161;33;20015;-87
2022/01/03 14:37:41;;;;;;;;;;;10.30;99.90;;;;;;4247646;33;19995;-87
2022/01/03 14:40:09;;;;;;;;;;;10.30;99.90;;;;;;4261165;33;20021;-87
2022/01/03 14:42:37;;;;;;;;;;;10.30;99.90;;;;;;4259456;33;20327;-87
2022/01/03 14:45:13;;;;;;;;;;;10.30;99.90;;;;;;4247975;33;20019;-87
2022/01/03 14:47:43;;;;;;;;;;;10.30;99.90;;;;;;4260001;33;20230;-87
2022/01/03 14:50:11;;;;;;;;;;;10.30;99.90;;;;;;4260906;33;20003;-86
2022/01/03 14:52:43;;;;;;;;;;;10.30;99.90;;;;;;4247859;33;20015;-86
2022/01/03 14:55:14;;;;;;;;;;;10.30;99.90;;;;;;4259365;33;20082;-86
2022/01/03 14:57:46;;;;;;;;;;;10.30;99.90;;;;;;4247767;33;20053;-86
2022/01/03 15:00:18;;;;;;;;;;;10.30;99.90;;;;;;4260460;33;20021;-85
2022/01/03 15:02:46;;;;;;;;;;;10.30;99.90;;;;;;4259226;33;20033;-86
2022/01/03 15:05:15;;;;;;;;;;;10.30;99.90;;;;;;4260253;33;20026;-86